createdAt,value
2017-12-22T00:00:10.683Z,1015.35
2017-12-22T00:01:10.684Z,1015.35
2017-12-22T00:02:10.682Z,1015.36
2017-12-22T00:03:10.673Z,1015.36
2017-12-22T00:04:10.678Z,1015.36
2017-12-22T00:05:10.667Z,1015.40
2017-12-22T00:06:10.667Z,1015.41
2017-12-22T00:07:10.668Z,1015.34
2017-12-22T00:08:10.652Z,1015.35
2017-12-22T00:09:10.651Z,1015.35
2017-12-22T00:10:10.645Z,1015.39
2017-12-22T00:11:10.641Z,1015.34
2017-12-22T00:12:10.636Z,1015.33
2017-12-22T00:13:10.636Z,1015.35
2017-12-22T00:14:10.628Z,1015.38
2017-12-22T00:15:10.651Z,1015.32
2017-12-22T00:16:10.618Z,1015.35
2017-12-22T00:17:10.617Z,1015.38
2017-12-22T00:18:10.614Z,1015.32
2017-12-22T00:19:10.673Z,1015.35
2017-12-22T00:20:10.607Z,1015.33
2017-12-22T00:21:10.602Z,1015.34
2017-12-22T00:22:10.599Z,1015.30
2017-12-22T00:23:10.593Z,1015.33
2017-12-22T00:24:10.781Z,1015.34
2017-12-22T00:25:10.584Z,1015.31
2017-12-22T00:26:10.581Z,1015.33
2017-12-22T00:27:10.579Z,1015.29
2017-12-22T00:28:10.574Z,1015.30
2017-12-22T00:29:10.571Z,1015.31
2017-12-22T00:30:10.596Z,1015.33
2017-12-22T00:31:10.562Z,1015.31
2017-12-22T00:32:10.559Z,1015.38
2017-12-22T00:33:10.554Z,1015.37
2017-12-22T00:34:10.569Z,1015.41
2017-12-22T00:35:10.544Z,1015.42
2017-12-22T00:36:10.542Z,1015.38
2017-12-22T00:37:10.543Z,1015.37
2017-12-22T00:38:10.532Z,1015.34
2017-12-22T00:39:10.544Z,1015.30
2017-12-22T00:40:10.528Z,1015.34
2017-12-22T00:41:10.527Z,1015.34
2017-12-22T00:42:10.523Z,1015.36
2017-12-22T00:43:10.513Z,1015.35
2017-12-22T00:44:10.509Z,1015.34
2017-12-22T00:45:10.528Z,1015.38
2017-12-22T00:46:10.501Z,1015.38
2017-12-22T00:47:10.498Z,1015.37
2017-12-22T00:48:10.495Z,1015.38
2017-12-22T00:49:10.490Z,1015.36
2017-12-22T00:50:10.487Z,1015.37
2017-12-22T00:51:10.487Z,1015.39
2017-12-22T00:52:10.480Z,1015.40
2017-12-22T00:53:10.475Z,1015.38
2017-12-22T00:54:10.540Z,1015.39
2017-12-22T00:55:10.467Z,1015.41
2017-12-22T00:56:10.461Z,1015.40
2017-12-22T00:57:10.464Z,1015.41
2017-12-22T00:58:10.456Z,1015.41
2017-12-22T00:59:10.449Z,1015.41
2017-12-22T01:00:10.447Z,1015.40
2017-12-22T01:01:10.463Z,1015.41
2017-12-22T01:02:10.436Z,1015.38
2017-12-22T01:03:10.433Z,1015.34
2017-12-22T01:04:10.430Z,1015.36
2017-12-22T01:05:10.425Z,1015.41
2017-12-22T01:06:10.422Z,1015.37
2017-12-22T01:07:10.426Z,1015.38
2017-12-22T01:08:10.415Z,1015.35
2017-12-22T01:09:10.410Z,1015.36
2017-12-22T01:10:10.404Z,1015.41
2017-12-22T01:11:10.411Z,1015.38
2017-12-22T01:12:10.398Z,1015.40
2017-12-22T01:13:10.404Z,1015.45
2017-12-22T01:14:10.389Z,1015.47
2017-12-22T01:15:10.386Z,1015.43
2017-12-22T01:16:10.386Z,1015.48
2017-12-22T01:17:10.378Z,1015.48
2017-12-22T01:18:10.373Z,1015.50
2017-12-22T01:19:10.369Z,1015.50
2017-12-22T01:20:10.368Z,1015.51
2017-12-22T01:21:10.362Z,1015.52
2017-12-22T01:22:10.357Z,1015.50
2017-12-22T01:23:10.356Z,1015.51
2017-12-22T01:24:10.351Z,1015.53
2017-12-22T01:25:10.345Z,1015.54
2017-12-22T01:26:10.341Z,1015.54
2017-12-22T01:27:10.335Z,1015.54
2017-12-22T01:28:10.332Z,1015.50
2017-12-22T01:29:10.329Z,1015.52
2017-12-22T01:30:10.326Z,1015.50
2017-12-22T01:31:10.322Z,1015.47
2017-12-22T01:32:10.319Z,1015.53
2017-12-22T01:33:10.314Z,1015.51
2017-12-22T01:34:10.310Z,1015.50
2017-12-22T01:35:10.307Z,1015.56
2017-12-22T01:36:10.300Z,1015.58
2017-12-22T01:37:10.422Z,1015.59
2017-12-22T01:38:10.292Z,1015.56
2017-12-22T01:39:10.309Z,1015.56
2017-12-22T01:40:10.284Z,1015.56
2017-12-22T01:41:10.278Z,1015.55
2017-12-22T01:42:10.275Z,1015.54
2017-12-22T01:43:10.271Z,1015.58
2017-12-22T01:44:10.268Z,1015.56
2017-12-22T01:45:10.263Z,1015.59
2017-12-22T01:46:10.259Z,1015.60
2017-12-22T01:47:10.256Z,1015.61
2017-12-22T01:48:10.253Z,1015.57
2017-12-22T01:49:10.246Z,1015.57
2017-12-22T01:50:10.241Z,1015.59
2017-12-22T01:51:10.241Z,1015.61
2017-12-22T01:52:10.233Z,1015.57
2017-12-22T01:53:10.232Z,1015.57
2017-12-22T01:54:10.223Z,1015.56
2017-12-22T01:55:10.226Z,1015.56
2017-12-22T01:56:10.217Z,1015.56
2017-12-22T01:57:10.215Z,1015.52
2017-12-22T01:58:10.210Z,1015.52
2017-12-22T01:59:10.205Z,1015.52
2017-12-22T02:00:10.201Z,1015.54
2017-12-22T02:01:10.195Z,1015.53
2017-12-22T02:02:10.190Z,1015.51
2017-12-22T02:03:10.188Z,1015.50
2017-12-22T02:04:10.185Z,1015.55
2017-12-22T02:05:10.180Z,1015.53
2017-12-22T02:06:10.174Z,1015.53
2017-12-22T02:07:10.170Z,1015.55
2017-12-22T02:08:10.169Z,1015.55
2017-12-22T02:09:10.164Z,1015.53
2017-12-22T02:10:10.162Z,1015.48
2017-12-22T02:11:10.220Z,1015.51
2017-12-22T02:12:10.153Z,1015.47
2017-12-22T02:13:10.149Z,1015.48
2017-12-22T02:14:10.141Z,1015.45
2017-12-22T02:15:10.139Z,1015.44
2017-12-22T02:16:10.136Z,1015.43
2017-12-22T02:17:10.129Z,1015.40
2017-12-22T02:18:10.126Z,1015.43
2017-12-22T02:19:10.123Z,1015.42
2017-12-22T02:20:10.119Z,1015.42
2017-12-22T02:21:10.112Z,1015.41
2017-12-22T02:22:10.173Z,1015.39
2017-12-22T02:23:10.169Z,1015.37
2017-12-22T02:24:11.131Z,1015.44
2017-12-22T02:25:10.439Z,1015.39
2017-12-22T02:26:10.261Z,1015.41
2017-12-22T02:27:10.088Z,1015.42
2017-12-22T02:28:10.085Z,1015.34
2017-12-22T02:29:10.081Z,1015.37
2017-12-22T02:30:10.074Z,1015.37
2017-12-22T02:31:10.071Z,1015.37
2017-12-22T02:32:10.066Z,1015.36
2017-12-22T02:33:10.065Z,1015.34
2017-12-22T02:34:10.060Z,1015.33
2017-12-22T02:35:10.059Z,1015.29
2017-12-22T02:36:10.091Z,1015.31
2017-12-22T02:37:10.043Z,1015.30
2017-12-22T02:38:10.038Z,1015.26
2017-12-22T02:39:10.043Z,1015.27
2017-12-22T02:40:10.032Z,1015.25
2017-12-22T02:41:10.038Z,1015.24
2017-12-22T02:42:10.024Z,1015.25
2017-12-22T02:43:10.474Z,1015.21
2017-12-22T02:44:10.013Z,1015.21
2017-12-22T02:45:10.055Z,1015.21
2017-12-22T02:46:10.006Z,1015.21
2017-12-22T02:47:10.004Z,1015.22
2017-12-22T02:48:09.996Z,1015.24
2017-12-22T02:49:09.990Z,1015.21
2017-12-22T02:50:10.012Z,1015.15
2017-12-22T02:51:09.983Z,1015.14
2017-12-22T02:52:09.981Z,1015.14
2017-12-22T02:53:09.973Z,1015.11
2017-12-22T02:54:09.972Z,1015.07
2017-12-22T02:55:09.964Z,1015.09
2017-12-22T02:56:09.964Z,1015.06
2017-12-22T02:57:09.955Z,1015.06
2017-12-22T02:58:09.948Z,1015.00
2017-12-22T02:59:09.946Z,1014.98
2017-12-22T03:00:09.942Z,1014.98
2017-12-22T03:01:09.935Z,1014.99
2017-12-22T03:02:09.936Z,1014.99
2017-12-22T03:03:09.926Z,1015.01
2017-12-22T03:04:09.938Z,1015.03
2017-12-22T03:05:09.921Z,1015.00
2017-12-22T03:06:09.911Z,1015.02
2017-12-22T03:07:09.905Z,1015.03
2017-12-22T03:08:09.910Z,1015.00
2017-12-22T03:09:09.896Z,1015.00
2017-12-22T03:10:09.891Z,1014.98
2017-12-22T03:11:09.887Z,1014.98
2017-12-22T03:12:09.882Z,1014.99
2017-12-22T03:13:09.878Z,1015.00
2017-12-22T03:14:09.872Z,1014.99
2017-12-22T03:15:09.869Z,1014.98
2017-12-22T03:16:09.863Z,1015.00
2017-12-22T03:17:09.859Z,1014.97
2017-12-22T03:18:09.852Z,1015.02
2017-12-22T03:19:09.848Z,1015.00
2017-12-22T03:20:09.845Z,1015.01
2017-12-22T03:21:09.842Z,1015.01
2017-12-22T03:22:09.833Z,1014.99
2017-12-22T03:23:09.830Z,1014.99
2017-12-22T03:24:09.823Z,1014.99
2017-12-22T03:25:09.820Z,1014.92
2017-12-22T03:26:10.342Z,1014.94
2017-12-22T03:27:11.514Z,1014.89
2017-12-22T03:28:09.813Z,1014.89
2017-12-22T03:29:09.800Z,1014.89
2017-12-22T03:30:09.800Z,1014.87
2017-12-22T03:31:09.791Z,1014.85
2017-12-22T03:32:09.785Z,1014.86
2017-12-22T03:33:09.781Z,1014.87
2017-12-22T03:34:09.777Z,1014.80
2017-12-22T03:35:09.770Z,1014.76
2017-12-22T03:36:09.764Z,1014.76
2017-12-22T03:37:09.760Z,1014.79
2017-12-22T03:38:09.755Z,1014.77
2017-12-22T03:39:09.756Z,1014.72
2017-12-22T03:40:09.745Z,1014.70
2017-12-22T03:41:09.741Z,1014.71
2017-12-22T03:42:09.735Z,1014.71
2017-12-22T03:43:09.732Z,1014.71
2017-12-22T03:44:09.725Z,1014.68
2017-12-22T03:45:09.721Z,1014.67
2017-12-22T03:46:09.713Z,1014.65
2017-12-22T03:47:09.710Z,1014.66
2017-12-22T03:48:09.704Z,1014.62
2017-12-22T03:49:09.705Z,1014.64
2017-12-22T03:50:09.693Z,1014.64
2017-12-22T03:51:09.694Z,1014.63
2017-12-22T03:52:09.686Z,1014.61
2017-12-22T03:53:09.678Z,1014.58
2017-12-22T03:54:09.674Z,1014.61
2017-12-22T03:55:09.670Z,1014.65
2017-12-22T03:56:09.665Z,1014.61
2017-12-22T03:57:09.661Z,1014.61
2017-12-22T03:58:09.653Z,1014.63
2017-12-22T03:59:09.648Z,1014.61
2017-12-22T04:00:09.645Z,1014.59
2017-12-22T04:01:09.643Z,1014.65
2017-12-22T04:02:09.632Z,1014.63
2017-12-22T04:03:09.626Z,1014.62
2017-12-22T04:04:09.622Z,1014.62
2017-12-22T04:05:09.617Z,1014.61
2017-12-22T04:06:09.614Z,1014.59
2017-12-22T04:07:09.606Z,1014.56
2017-12-22T04:08:09.603Z,1014.59
2017-12-22T04:09:09.596Z,1014.59
2017-12-22T04:10:09.589Z,1014.58
2017-12-22T04:11:09.584Z,1014.57
2017-12-22T04:12:09.580Z,1014.56
2017-12-22T04:13:09.574Z,1014.52
2017-12-22T04:14:09.567Z,1014.53
2017-12-22T04:15:09.563Z,1014.50
2017-12-22T04:16:09.562Z,1014.54
2017-12-22T04:17:09.551Z,1014.52
2017-12-22T04:18:37.089Z,1014.57
2017-12-22T04:19:09.543Z,1014.54
2017-12-22T04:20:09.541Z,1014.56
2017-12-22T04:21:09.533Z,1014.54
2017-12-22T04:22:09.779Z,1014.55
2017-12-22T04:23:11.013Z,1014.58
2017-12-22T04:24:10.543Z,1014.58
2017-12-22T04:25:11.103Z,1014.53
2017-12-22T04:26:10.514Z,1014.52
2017-12-22T04:27:10.552Z,1014.55
2017-12-22T04:28:09.559Z,1014.53
2017-12-22T04:29:09.510Z,1014.48
2017-12-22T04:30:10.085Z,1014.50
2017-12-22T04:31:09.571Z,1014.52
2017-12-22T04:32:09.528Z,1014.54
2017-12-22T04:33:09.635Z,1014.57
2017-12-22T04:34:09.627Z,1014.59
2017-12-22T04:35:09.649Z,1014.57
2017-12-22T04:36:09.549Z,1014.61
2017-12-22T04:37:10.074Z,1014.64
2017-12-22T04:38:10.102Z,1014.66
2017-12-22T04:39:10.017Z,1014.64
2017-12-22T04:40:09.432Z,1014.66
2017-12-22T04:41:09.426Z,1014.71
2017-12-22T04:42:09.420Z,1014.67
2017-12-22T04:43:09.420Z,1014.73
2017-12-22T04:44:10.020Z,1014.76
2017-12-22T04:45:09.403Z,1014.73
2017-12-22T04:46:09.403Z,1014.73
2017-12-22T04:47:09.395Z,1014.76
2017-12-22T04:48:09.389Z,1014.82
2017-12-22T04:49:09.384Z,1014.78
2017-12-22T04:50:09.380Z,1014.81
2017-12-22T04:51:09.374Z,1014.77
2017-12-22T04:52:09.369Z,1014.79
2017-12-22T04:53:09.366Z,1014.79
2017-12-22T04:54:09.359Z,1014.81
2017-12-22T04:55:09.355Z,1014.81
2017-12-22T04:56:09.349Z,1014.80
2017-12-22T04:57:09.344Z,1014.80
2017-12-22T04:58:09.339Z,1014.78
2017-12-22T04:59:09.335Z,1014.75
2017-12-22T05:00:09.331Z,1014.78
2017-12-22T05:01:09.328Z,1014.75
2017-12-22T05:02:09.320Z,1014.75
2017-12-22T05:03:09.314Z,1014.72
2017-12-22T05:04:09.309Z,1014.73
2017-12-22T05:05:09.306Z,1014.73
2017-12-22T05:06:09.298Z,1014.71
2017-12-22T05:07:09.293Z,1014.76
2017-12-22T05:08:09.289Z,1014.76
2017-12-22T05:09:09.286Z,1014.74
2017-12-22T05:10:09.278Z,1014.77
2017-12-22T05:11:09.272Z,1014.75
2017-12-22T05:12:09.267Z,1014.74
2017-12-22T05:13:09.264Z,1014.76
2017-12-22T05:14:09.259Z,1014.78
2017-12-22T05:15:09.253Z,1014.75
2017-12-22T05:16:09.249Z,1014.74
2017-12-22T05:17:09.244Z,1014.74
2017-12-22T05:18:09.273Z,1014.76
2017-12-22T05:19:09.236Z,1014.78
2017-12-22T05:20:09.228Z,1014.78
2017-12-22T05:21:09.222Z,1014.75
2017-12-22T05:22:09.218Z,1014.78
2017-12-22T05:23:09.214Z,1014.79
2017-12-22T05:24:09.209Z,1014.79
2017-12-22T05:25:09.202Z,1014.78
2017-12-22T05:26:09.199Z,1014.74
2017-12-22T05:27:09.194Z,1014.82
2017-12-22T05:28:09.198Z,1014.77
2017-12-22T05:29:09.186Z,1014.80
2017-12-22T05:30:09.178Z,1014.83
2017-12-22T05:31:09.173Z,1014.83
2017-12-22T05:32:09.178Z,1014.81
2017-12-22T05:33:09.163Z,1014.87
2017-12-22T05:34:09.159Z,1014.90
2017-12-22T05:35:09.153Z,1014.90
2017-12-22T05:36:09.148Z,1014.92
2017-12-22T05:37:09.325Z,1014.95
2017-12-22T05:38:09.139Z,1014.92
2017-12-22T05:39:09.135Z,1014.93
2017-12-22T05:40:09.130Z,1014.92
2017-12-22T05:41:09.127Z,1014.95
2017-12-22T05:42:09.118Z,1014.89
2017-12-22T05:43:09.112Z,1014.90
2017-12-22T05:44:09.108Z,1014.92
2017-12-22T05:45:09.107Z,1014.88
2017-12-22T05:46:09.112Z,1014.90
2017-12-22T05:47:09.092Z,1014.87
2017-12-22T05:48:09.091Z,1014.89
2017-12-22T05:49:09.084Z,1014.88
2017-12-22T05:50:09.078Z,1014.88
2017-12-22T05:51:09.074Z,1014.87
2017-12-22T05:52:09.069Z,1014.85
2017-12-22T05:53:09.066Z,1014.84
2017-12-22T05:54:09.060Z,1014.83
2017-12-22T05:55:09.056Z,1014.83
2017-12-22T05:56:09.050Z,1014.82
2017-12-22T05:57:09.054Z,1014.88
2017-12-22T05:58:09.047Z,1014.84
2017-12-22T05:59:09.037Z,1014.82
2017-12-22T06:00:09.031Z,1014.87
2017-12-22T06:01:09.026Z,1014.85
2017-12-22T06:02:09.021Z,1014.86
2017-12-22T06:03:09.018Z,1014.87
2017-12-22T06:04:09.012Z,1014.86
2017-12-22T06:05:09.005Z,1014.89
2017-12-22T06:06:09.017Z,1014.85
2017-12-22T06:07:09.001Z,1014.88
2017-12-22T06:08:08.993Z,1014.89
2017-12-22T06:09:08.989Z,1014.85
2017-12-22T06:10:08.982Z,1014.93
2017-12-22T06:11:08.979Z,1014.92
2017-12-22T06:12:08.974Z,1014.96
2017-12-22T06:13:08.968Z,1014.93
2017-12-22T06:14:08.961Z,1014.95
2017-12-22T06:15:08.965Z,1014.97
2017-12-22T06:16:08.959Z,1014.98
2017-12-22T06:17:08.952Z,1014.97
2017-12-22T06:18:08.948Z,1014.94
2017-12-22T06:19:08.941Z,1014.98
2017-12-22T06:20:08.936Z,1014.95
2017-12-22T06:21:08.929Z,1014.99
2017-12-22T06:22:08.925Z,1014.97
2017-12-22T06:23:08.920Z,1014.97
2017-12-22T06:24:08.916Z,1015.01
2017-12-22T06:25:08.913Z,1015.00
2017-12-22T06:26:08.912Z,1014.97
2017-12-22T06:27:08.904Z,1014.99
2017-12-22T06:28:08.939Z,1014.99
2017-12-22T06:29:08.893Z,1014.98
2017-12-22T06:30:08.887Z,1014.94
2017-12-22T06:31:08.882Z,1014.99
2017-12-22T06:32:08.885Z,1014.96
2017-12-22T06:33:08.874Z,1014.96
2017-12-22T06:34:08.872Z,1014.92
2017-12-22T06:35:08.865Z,1014.94
2017-12-22T06:36:08.862Z,1014.95
2017-12-22T06:37:08.858Z,1014.91
2017-12-22T06:38:08.853Z,1014.93
2017-12-22T06:39:08.851Z,1014.92
2017-12-22T06:40:08.843Z,1014.92
2017-12-22T06:41:08.838Z,1014.98
2017-12-22T06:42:08.834Z,1014.99
2017-12-22T06:43:08.829Z,1014.97
2017-12-22T06:44:08.825Z,1014.98
2017-12-22T06:45:08.820Z,1014.99
2017-12-22T06:46:08.815Z,1014.99
2017-12-22T06:47:08.813Z,1015.00
2017-12-22T06:48:08.808Z,1015.03
2017-12-22T06:49:08.803Z,1014.99
2017-12-22T06:50:08.800Z,1014.98
2017-12-22T06:51:08.794Z,1014.98
2017-12-22T06:52:08.793Z,1014.98
2017-12-22T06:53:08.783Z,1014.97
2017-12-22T06:54:08.779Z,1014.95
2017-12-22T06:55:08.777Z,1014.91
2017-12-22T06:56:08.768Z,1014.93
2017-12-22T06:57:08.765Z,1014.92
2017-12-22T06:58:08.762Z,1014.92
2017-12-22T06:59:08.757Z,1014.92
2017-12-22T07:00:08.753Z,1014.93
2017-12-22T07:01:08.750Z,1014.96
2017-12-22T07:02:08.744Z,1014.97
2017-12-22T07:03:08.739Z,1014.98
2017-12-22T07:04:08.735Z,1014.99
2017-12-22T07:05:08.731Z,1014.98
2017-12-22T07:06:08.723Z,1014.94
2017-12-22T07:07:08.731Z,1014.87
2017-12-22T07:08:08.715Z,1014.87
2017-12-22T07:09:08.711Z,1014.90
2017-12-22T07:10:08.706Z,1014.87
2017-12-22T07:11:08.705Z,1014.86
2017-12-22T07:12:08.699Z,1014.88
2017-12-22T07:13:08.695Z,1014.87
2017-12-22T07:14:08.689Z,1014.90
2017-12-22T07:15:08.684Z,1014.93
2017-12-22T07:16:08.682Z,1014.95
2017-12-22T07:17:08.676Z,1014.95
2017-12-22T07:18:08.670Z,1014.94
2017-12-22T07:19:08.666Z,1014.92
2017-12-22T07:20:08.662Z,1014.92
2017-12-22T07:21:08.658Z,1014.95
2017-12-22T07:22:08.654Z,1014.97
2017-12-22T07:23:08.650Z,1014.94
2017-12-22T07:24:08.642Z,1014.98
2017-12-22T07:25:08.640Z,1014.98
2017-12-22T07:26:08.638Z,1014.98
2017-12-22T07:27:08.628Z,1014.99
2017-12-22T07:28:08.625Z,1015.01
2017-12-22T07:29:08.620Z,1015.02
2017-12-22T07:30:08.617Z,1015.03
2017-12-22T07:31:08.612Z,1015.02
2017-12-22T07:32:08.623Z,1014.98
2017-12-22T07:33:08.603Z,1014.98
2017-12-22T07:34:08.596Z,1014.99
2017-12-22T07:35:08.593Z,1014.97
2017-12-22T07:36:08.591Z,1014.92
2017-12-22T07:37:08.584Z,1014.97
2017-12-22T07:38:08.580Z,1014.94
2017-12-22T07:39:08.574Z,1014.89
2017-12-22T07:40:08.572Z,1014.88
2017-12-22T07:41:08.566Z,1014.84
2017-12-22T07:42:08.574Z,1014.86
2017-12-22T07:43:08.567Z,1014.89
2017-12-22T07:44:08.611Z,1014.93
2017-12-22T07:45:08.560Z,1015.00
2017-12-22T07:46:08.572Z,1015.01
2017-12-22T07:47:08.538Z,1015.11
2017-12-22T07:48:08.534Z,1015.08
2017-12-22T07:49:08.531Z,1015.12
2017-12-22T07:50:08.525Z,1015.09
2017-12-22T07:51:08.519Z,1015.10
2017-12-22T07:52:08.514Z,1015.11
2017-12-22T07:53:08.515Z,1015.16
2017-12-22T07:54:08.507Z,1015.17
2017-12-22T07:55:08.567Z,1015.20
2017-12-22T07:56:08.500Z,1015.22
2017-12-22T07:57:08.494Z,1015.23
2017-12-22T07:58:08.487Z,1015.19
2017-12-22T07:59:08.486Z,1015.15
2017-12-22T08:00:08.479Z,1015.12
2017-12-22T08:01:08.476Z,1015.14
2017-12-22T08:02:08.481Z,1015.16
2017-12-22T08:03:08.473Z,1015.13
2017-12-22T08:04:08.462Z,1015.15
2017-12-22T08:05:08.859Z,1015.15
2017-12-22T08:06:09.609Z,1015.08
2017-12-22T08:07:09.111Z,1015.07
2017-12-22T08:08:08.445Z,1015.05
2017-12-22T08:09:08.439Z,1015.05
2017-12-22T08:10:08.444Z,1015.03
2017-12-22T08:11:08.435Z,1015.00
2017-12-22T08:12:08.437Z,1014.96
2017-12-22T08:13:08.428Z,1014.99
2017-12-22T08:14:08.418Z,1015.00
2017-12-22T08:15:08.412Z,1015.00
2017-12-22T08:16:08.407Z,1015.00
2017-12-22T08:17:08.427Z,1014.98
2017-12-22T08:18:08.396Z,1015.01
2017-12-22T08:19:08.393Z,1015.02
2017-12-22T08:20:08.393Z,1015.01
2017-12-22T08:21:08.386Z,1015.00
2017-12-22T08:22:08.400Z,1014.99
2017-12-22T08:23:08.375Z,1014.99
2017-12-22T08:24:08.378Z,1015.02
2017-12-22T08:25:08.364Z,1014.99
2017-12-22T08:26:08.361Z,1015.00
2017-12-22T08:27:08.355Z,1014.97
2017-12-22T08:28:08.353Z,1014.98
2017-12-22T08:29:08.351Z,1015.01
2017-12-22T08:30:08.342Z,1015.02
2017-12-22T08:31:08.338Z,1014.98
2017-12-22T08:32:08.339Z,1015.00
2017-12-22T08:33:08.341Z,1014.98
2017-12-22T08:34:08.326Z,1014.94
2017-12-22T08:35:08.322Z,1014.94
2017-12-22T08:36:08.319Z,1014.98
2017-12-22T08:37:08.312Z,1014.91
2017-12-22T08:38:08.320Z,1014.98
2017-12-22T08:39:08.302Z,1014.97
2017-12-22T08:40:08.298Z,1014.95
2017-12-22T08:41:08.298Z,1015.00
2017-12-22T08:42:08.292Z,1015.01
2017-12-22T08:43:08.284Z,1015.07
2017-12-22T08:44:08.284Z,1015.08
2017-12-22T08:45:08.277Z,1015.06
2017-12-22T08:46:08.271Z,1015.09
2017-12-22T08:47:08.267Z,1015.10
2017-12-22T08:48:08.262Z,1015.11
2017-12-22T08:49:08.257Z,1015.13
2017-12-22T08:50:08.251Z,1015.16
2017-12-22T08:51:08.249Z,1015.16
2017-12-22T08:52:08.243Z,1015.20
2017-12-22T08:53:08.238Z,1015.18
2017-12-22T08:54:08.254Z,1015.15
2017-12-22T08:55:08.263Z,1015.12
2017-12-22T08:56:08.226Z,1015.10
2017-12-22T08:57:08.222Z,1015.10
2017-12-22T08:58:08.219Z,1015.07
2017-12-22T08:59:08.214Z,1015.12
2017-12-22T09:00:08.232Z,1015.17
2017-12-22T09:01:08.244Z,1015.21
2017-12-22T09:02:08.201Z,1015.26
2017-12-22T09:03:08.196Z,1015.29
2017-12-22T09:04:08.189Z,1015.26
2017-12-22T09:05:08.192Z,1015.29
2017-12-22T09:06:08.182Z,1015.27
2017-12-22T09:07:08.178Z,1015.29
2017-12-22T09:08:08.176Z,1015.36
2017-12-22T09:09:08.173Z,1015.41
2017-12-22T09:10:08.165Z,1015.40
2017-12-22T09:11:08.162Z,1015.47
2017-12-22T09:12:08.162Z,1015.43
2017-12-22T09:13:08.154Z,1015.42
2017-12-22T09:14:08.152Z,1015.46
2017-12-22T09:15:08.146Z,1015.43
2017-12-22T09:16:08.142Z,1015.46
2017-12-22T09:17:08.138Z,1015.51
2017-12-22T09:18:08.133Z,1015.49
2017-12-22T09:19:08.160Z,1015.49
2017-12-22T09:20:08.125Z,1015.49
2017-12-22T09:21:08.137Z,1015.53
2017-12-22T09:22:08.120Z,1015.52
2017-12-22T09:23:08.111Z,1015.55
2017-12-22T09:24:08.106Z,1015.58
2017-12-22T09:25:08.108Z,1015.58
2017-12-22T09:26:08.100Z,1015.61
2017-12-22T09:27:08.098Z,1015.64
2017-12-22T09:28:08.110Z,1015.62
2017-12-22T09:29:08.089Z,1015.64
2017-12-22T09:30:08.106Z,1015.64
2017-12-22T09:31:08.083Z,1015.64
2017-12-22T09:32:08.077Z,1015.63
2017-12-22T09:33:08.072Z,1015.59
2017-12-22T09:34:08.071Z,1015.59
2017-12-22T09:35:08.062Z,1015.62
2017-12-22T09:36:08.060Z,1015.53
2017-12-22T09:37:08.055Z,1015.55
2017-12-22T09:38:08.051Z,1015.48
2017-12-22T09:39:08.052Z,1015.46
2017-12-22T09:40:08.042Z,1015.41
2017-12-22T09:41:08.042Z,1015.42
2017-12-22T09:42:08.033Z,1015.39
2017-12-22T09:43:08.029Z,1015.40
2017-12-22T09:44:08.027Z,1015.41
2017-12-22T09:45:08.023Z,1015.39
2017-12-22T09:46:08.016Z,1015.44
2017-12-22T09:47:08.015Z,1015.41
2017-12-22T09:48:08.017Z,1015.44
2017-12-22T09:49:08.011Z,1015.43
2017-12-22T09:50:08.002Z,1015.45
2017-12-22T09:51:07.995Z,1015.41
2017-12-22T09:52:07.994Z,1015.37
2017-12-22T09:53:07.991Z,1015.36
2017-12-22T09:54:07.983Z,1015.34
2017-12-22T09:55:07.983Z,1015.37
2017-12-22T09:56:07.979Z,1015.35
2017-12-22T09:57:07.988Z,1015.33
2017-12-22T09:58:07.967Z,1015.35
2017-12-22T09:59:07.968Z,1015.37
2017-12-22T10:00:07.960Z,1015.33
2017-12-22T10:01:07.957Z,1015.38
2017-12-22T10:02:07.960Z,1015.42
2017-12-22T10:03:07.952Z,1015.39
2017-12-22T10:04:07.946Z,1015.38
2017-12-22T10:05:07.942Z,1015.33
2017-12-22T10:06:07.934Z,1015.38
2017-12-22T10:07:07.951Z,1015.35
2017-12-22T10:08:07.930Z,1015.34
2017-12-22T10:09:07.924Z,1015.34
2017-12-22T10:10:08.014Z,1015.29
2017-12-22T10:11:07.917Z,1015.28
2017-12-22T10:12:07.912Z,1015.27
2017-12-22T10:13:07.912Z,1015.27
2017-12-22T10:14:07.903Z,1015.27
2017-12-22T10:15:07.901Z,1015.28
2017-12-22T10:16:07.901Z,1015.28
2017-12-22T10:17:07.895Z,1015.30
2017-12-22T10:18:07.890Z,1015.21
2017-12-22T10:19:07.886Z,1015.20
2017-12-22T10:20:07.881Z,1015.21
2017-12-22T10:21:07.899Z,1015.26
2017-12-22T10:22:07.872Z,1015.25
2017-12-22T10:23:07.879Z,1015.25
2017-12-22T10:24:07.865Z,1015.23
2017-12-22T10:25:07.863Z,1015.23
2017-12-22T10:26:07.860Z,1015.21
2017-12-22T10:27:07.858Z,1015.20
2017-12-22T10:28:07.851Z,1015.20
2017-12-22T10:29:07.850Z,1015.19
2017-12-22T10:30:07.844Z,1015.16
2017-12-22T10:31:07.842Z,1015.09
2017-12-22T10:32:07.837Z,1015.09
2017-12-22T10:33:07.833Z,1015.14
2017-12-22T10:34:07.842Z,1015.16
2017-12-22T10:35:07.827Z,1015.16
2017-12-22T10:36:07.821Z,1015.16
2017-12-22T10:37:07.820Z,1015.12
2017-12-22T10:38:07.815Z,1015.11
2017-12-22T10:39:07.816Z,1015.11
2017-12-22T10:40:07.810Z,1015.13
2017-12-22T10:41:07.807Z,1015.14
2017-12-22T10:42:07.818Z,1015.12
2017-12-22T10:43:07.800Z,1015.14
2017-12-22T10:44:07.797Z,1015.14
2017-12-22T10:45:07.791Z,1015.17
2017-12-22T10:46:07.788Z,1015.22
2017-12-22T10:47:07.785Z,1015.19
2017-12-22T10:48:07.791Z,1015.23
2017-12-22T10:49:07.780Z,1015.21
2017-12-22T10:50:07.773Z,1015.16
2017-12-22T10:51:07.773Z,1015.18
2017-12-22T10:52:07.773Z,1015.15
2017-12-22T10:53:07.766Z,1015.18
2017-12-22T10:54:07.762Z,1015.16
2017-12-22T10:55:07.762Z,1015.19
2017-12-22T10:56:07.764Z,1015.18
2017-12-22T10:57:07.750Z,1015.14
2017-12-22T10:58:07.749Z,1015.15
2017-12-22T10:59:07.748Z,1015.16
2017-12-22T11:00:07.762Z,1015.08
2017-12-22T11:01:07.739Z,1015.05
2017-12-22T11:02:07.737Z,1014.99
2017-12-22T11:03:07.740Z,1015.01
2017-12-22T11:04:07.736Z,1014.96
2017-12-22T11:05:07.728Z,1014.95
2017-12-22T11:06:07.726Z,1014.92
2017-12-22T11:07:07.723Z,1014.95
2017-12-22T11:08:07.718Z,1015.00
2017-12-22T11:09:07.715Z,1015.02
2017-12-22T11:10:07.711Z,1014.99
2017-12-22T11:11:07.708Z,1014.98
2017-12-22T11:12:07.707Z,1014.98
2017-12-22T11:13:07.706Z,1014.95
2017-12-22T11:14:07.701Z,1014.91
2017-12-22T11:15:07.733Z,1014.90
2017-12-22T11:16:07.697Z,1014.91
2017-12-22T11:17:07.701Z,1014.86
2017-12-22T11:18:07.689Z,1014.83
2017-12-22T11:19:07.689Z,1014.85
2017-12-22T11:20:07.683Z,1014.85
2017-12-22T11:21:07.682Z,1014.81
2017-12-22T11:22:07.690Z,1014.82
2017-12-22T11:23:07.676Z,1014.89
2017-12-22T11:24:07.674Z,1014.86
2017-12-22T11:25:07.671Z,1014.84
2017-12-22T11:26:07.678Z,1014.81
2017-12-22T11:27:07.663Z,1014.81
2017-12-22T11:28:07.668Z,1014.82
2017-12-22T11:29:07.660Z,1014.82
2017-12-22T11:30:07.656Z,1014.83
2017-12-22T11:31:07.658Z,1014.82
2017-12-22T11:32:07.651Z,1014.80
2017-12-22T11:33:07.650Z,1014.77
2017-12-22T11:34:07.651Z,1014.78
2017-12-22T11:35:07.642Z,1014.78
2017-12-22T11:36:07.643Z,1014.76
2017-12-22T11:37:07.640Z,1014.75
2017-12-22T11:38:07.633Z,1014.77
2017-12-22T11:39:07.641Z,1014.77
2017-12-22T11:40:07.637Z,1014.77
2017-12-22T11:41:07.626Z,1014.82
2017-12-22T11:42:07.636Z,1014.85
2017-12-22T11:43:07.626Z,1014.86
2017-12-22T11:44:07.616Z,1014.89
2017-12-22T11:45:07.639Z,1014.90
2017-12-22T11:46:07.611Z,1014.90
2017-12-22T11:47:07.609Z,1014.92
2017-12-22T11:48:07.608Z,1014.85
2017-12-22T11:49:07.604Z,1014.88
2017-12-22T11:50:07.600Z,1014.84
2017-12-22T11:51:07.600Z,1014.83
2017-12-22T11:52:07.594Z,1014.82
2017-12-22T11:53:07.593Z,1014.76
2017-12-22T11:54:07.615Z,1014.76
2017-12-22T11:55:07.587Z,1014.75
2017-12-22T11:56:07.584Z,1014.78
2017-12-22T11:57:07.582Z,1014.75
2017-12-22T11:58:07.577Z,1014.79
2017-12-22T11:59:07.575Z,1014.82
2017-12-22T12:00:07.576Z,1014.76
2017-12-22T12:01:07.578Z,1014.74
2017-12-22T12:02:07.567Z,1014.81
2017-12-22T12:03:07.567Z,1014.70
2017-12-22T12:04:07.558Z,1014.76
2017-12-22T12:05:07.603Z,1014.74